createdAt,value
2023-04-21T00:01:56.653Z,27.20
2023-04-21T00:04:26.039Z,27.20
2023-04-21T00:06:54.589Z,27.08
2023-04-21T00:09:22.638Z,27.42
2023-04-21T00:11:50.530Z,27.63
2023-04-21T00:14:18.720Z,28.05
2023-04-21T00:16:47.181Z,27.52
2023-04-21T00:19:15.452Z,27.73
2023-04-21T00:21:44.879Z,28.23
2023-04-21T00:24:12.717Z,27.27
2023-04-21T00:26:40.469Z,25.75
2023-04-21T00:29:08.296Z,25.85
2023-04-21T00:31:36.130Z,25.63
2023-04-21T00:34:03.984Z,27.10
2023-04-21T00:36:32.170Z,26.67
2023-04-21T00:39:01.252Z,27.60
2023-04-21T00:41:29.686Z,26.13
2023-04-21T00:44:04.848Z,26.58
2023-04-21T00:46:33.326Z,26.42
2023-04-21T00:49:04.038Z,25.50
2023-04-21T00:51:33.183Z,26.30
2023-04-21T00:54:03.784Z,26.00
2023-04-21T00:56:33.405Z,24.20
2023-04-21T00:59:02.039Z,25.38
2023-04-21T01:01:30.802Z,24.38
2023-04-21T01:04:00.186Z,24.58
2023-04-21T01:06:30.024Z,25.55
2023-04-21T01:08:57.991Z,27.10
2023-04-21T01:11:27.329Z,25.83
2023-04-21T01:13:55.678Z,26.73
2023-04-21T01:16:24.919Z,26.83
2023-04-21T01:18:53.324Z,26.10
2023-04-21T01:21:21.754Z,26.30
2023-04-21T01:23:50.928Z,27.05
2023-04-21T01:26:19.838Z,26.27
2023-04-21T01:28:48.777Z,26.55
2023-04-21T01:31:17.104Z,25.27
2023-04-21T01:33:45.346Z,26.67
2023-04-21T01:36:13.177Z,26.07
2023-04-21T01:38:43.687Z,27.15
2023-04-21T01:41:12.864Z,27.65
2023-04-21T01:43:40.679Z,25.70
2023-04-21T01:46:08.924Z,26.38
2023-04-21T01:48:38.303Z,26.08
2023-04-21T01:51:06.257Z,26.05
2023-04-21T01:53:34.018Z,26.73
2023-04-21T01:56:01.784Z,26.95
2023-04-21T01:58:31.061Z,26.80
2023-04-21T02:00:58.859Z,25.40
2023-04-21T02:03:27.264Z,26.27
2023-04-21T02:05:55.272Z,26.42
2023-04-21T02:08:23.093Z,26.33
2023-04-21T02:10:51.027Z,28.05
2023-04-21T02:13:18.787Z,26.85
2023-04-21T02:15:47.919Z,27.15
2023-04-21T02:18:16.743Z,25.15
2023-04-21T02:20:44.699Z,25.75
2023-04-21T02:23:12.485Z,26.27
2023-04-21T02:25:40.275Z,25.70
2023-04-21T02:28:08.054Z,27.65
2023-04-21T02:30:35.925Z,25.75
2023-04-21T02:33:05.177Z,25.27
2023-04-21T02:35:33.591Z,25.10
2023-04-21T02:38:07.048Z,28.20
2023-04-21T02:40:34.846Z,28.77
2023-04-21T02:43:02.901Z,27.60
2023-04-21T02:45:30.856Z,26.70
2023-04-21T02:47:59.312Z,28.50
2023-04-21T02:50:28.609Z,26.97
2023-04-21T02:52:56.492Z,27.55
2023-04-21T02:55:24.862Z,29.57
2023-04-21T02:57:52.720Z,29.10
2023-04-21T03:00:20.912Z,27.77
2023-04-21T03:02:48.884Z,30.42
2023-04-21T03:05:17.544Z,28.67
2023-04-21T03:07:47.588Z,29.23
2023-04-21T03:10:15.431Z,28.80
2023-04-21T03:12:43.234Z,29.83
2023-04-21T03:15:11.329Z,30.58
2023-04-21T03:17:39.251Z,30.17
2023-04-21T03:20:08.618Z,31.38
2023-04-21T03:22:36.589Z,31.10
2023-04-21T03:25:07.117Z,29.60
2023-04-21T03:27:35.453Z,30.77
2023-04-21T03:30:03.281Z,29.92
2023-04-21T03:32:31.179Z,31.17
2023-04-21T03:34:58.932Z,29.70
2023-04-21T03:37:26.853Z,28.83
2023-04-21T03:39:54.594Z,29.02
2023-04-21T03:42:23.776Z,27.92
2023-04-21T03:44:51.625Z,29.50
2023-04-21T03:47:19.412Z,30.90
2023-04-21T03:49:47.227Z,29.27
2023-04-21T03:52:15.079Z,30.27
2023-04-21T03:54:42.812Z,29.48
2023-04-21T03:57:10.561Z,28.30
2023-04-21T03:59:39.715Z,29.27
2023-04-21T04:02:07.635Z,29.30
2023-04-21T04:04:36.585Z,30.58
2023-04-21T04:07:04.965Z,29.10
2023-04-21T04:09:32.734Z,31.13
2023-04-21T04:12:01.504Z,31.42
2023-04-21T04:14:29.345Z,28.65
2023-04-21T04:16:59.888Z,29.52
2023-04-21T04:19:31.855Z,29.40
2023-04-21T04:22:00.554Z,27.77
2023-04-21T04:24:28.773Z,29.65
2023-04-21T04:26:57.806Z,29.48
2023-04-21T04:29:25.653Z,32.33
2023-04-21T04:31:53.502Z,30.20
2023-04-21T04:34:24.464Z,29.88
2023-04-21T04:36:52.237Z,30.13
2023-04-21T04:39:20.390Z,29.45
2023-04-21T04:41:48.552Z,29.10
2023-04-21T04:44:18.042Z,31.50
2023-04-21T04:46:46.414Z,29.52
2023-04-21T04:49:15.357Z,29.30
2023-04-21T04:51:44.519Z,29.63
2023-04-21T04:54:12.316Z,31.98
2023-04-21T04:56:40.410Z,31.35
2023-04-21T04:59:08.300Z,29.88
2023-04-21T05:01:37.976Z,30.33
2023-04-21T05:04:06.050Z,27.02
2023-04-21T05:06:34.241Z,30.98
2023-04-21T05:09:04.809Z,30.42
2023-04-21T05:11:32.760Z,29.98
2023-04-21T05:14:00.776Z,30.15
2023-04-21T05:16:28.637Z,28.43
2023-04-21T05:18:56.870Z,29.30
2023-04-21T05:21:27.390Z,30.60
2023-04-21T05:23:55.393Z,30.03
2023-04-21T05:26:24.922Z,28.52
2023-04-21T05:28:52.702Z,30.67
2023-04-21T05:31:20.576Z,30.50
2023-04-21T05:33:48.358Z,30.00
2023-04-21T05:36:20.053Z,31.67
2023-04-21T05:38:47.951Z,31.38
2023-04-21T05:41:15.911Z,35.35
2023-04-21T05:43:45.246Z,35.35
2023-04-21T05:46:13.095Z,36.53
2023-04-21T05:48:41.549Z,36.63
2023-04-21T05:51:10.705Z,35.72
2023-04-21T05:53:38.820Z,38.25
2023-04-21T05:56:07.993Z,37.13
2023-04-21T05:58:35.866Z,36.58
2023-04-21T06:01:06.219Z,36.60
2023-04-21T06:03:34.779Z,35.70
2023-04-21T06:06:04.303Z,35.92
2023-04-21T06:08:32.160Z,34.78
2023-04-21T06:11:00.047Z,34.13
2023-04-21T06:13:28.111Z,32.90
2023-04-21T06:15:56.084Z,32.10
2023-04-21T06:18:27.607Z,32.00
2023-04-21T06:20:55.798Z,31.80
2023-04-21T06:23:23.897Z,31.90
2023-04-21T06:26:04.069Z,31.63
2023-04-21T06:28:32.425Z,31.00
2023-04-21T06:31:01.004Z,28.90
2023-04-21T06:33:30.705Z,28.05
2023-04-21T06:35:58.629Z,27.13
2023-04-21T06:38:26.441Z,26.40
2023-04-21T06:40:54.246Z,26.27
2023-04-21T06:43:22.010Z,26.03
2023-04-21T06:45:49.749Z,25.53
2023-04-21T06:48:17.599Z,24.42
2023-04-21T06:50:46.774Z,24.15
2023-04-21T06:53:14.509Z,23.10
2023-04-21T06:55:43.204Z,21.25
2023-04-21T06:58:11.208Z,20.90
2023-04-21T07:00:39.211Z,20.07
2023-04-21T07:03:07.473Z,21.00
2023-04-21T07:05:35.374Z,20.90
2023-04-21T07:08:04.553Z,21.17
2023-04-21T07:10:32.388Z,21.15
2023-04-21T07:13:00.173Z,21.52
2023-04-21T07:15:27.960Z,21.20
2023-04-21T07:17:55.846Z,20.50
2023-04-21T07:20:23.617Z,20.58
2023-04-21T07:22:51.394Z,20.50
2023-04-21T07:25:23.498Z,20.55
2023-04-21T07:27:51.288Z,19.45
2023-04-21T07:30:19.175Z,18.80
2023-04-21T07:32:47.152Z,19.35
2023-04-21T07:35:15.236Z,18.48
2023-04-21T07:37:43.002Z,19.38
2023-04-21T07:40:11.717Z,18.40
2023-04-21T07:42:41.366Z,17.00
2023-04-21T07:45:10.420Z,17.55
2023-04-21T07:47:38.295Z,16.83
2023-04-21T07:50:07.226Z,16.63
2023-04-21T07:52:35.047Z,16.85
2023-04-21T07:55:02.891Z,16.65
2023-04-21T07:57:31.831Z,16.35
2023-04-21T08:00:00.941Z,15.48
2023-04-21T08:02:28.771Z,16.38
2023-04-21T08:04:56.695Z,16.67
2023-04-21T08:07:24.557Z,15.80
2023-04-21T08:09:52.327Z,15.23
2023-04-21T08:12:20.118Z,15.90
2023-04-21T08:14:48.529Z,14.13
2023-04-21T08:17:17.694Z,14.27
2023-04-21T08:19:45.613Z,14.32
2023-04-21T08:22:13.464Z,14.27
2023-04-21T08:24:41.295Z,13.32
2023-04-21T08:27:09.102Z,13.98
2023-04-21T08:29:36.873Z,13.27
2023-04-21T08:32:04.739Z,13.90
2023-04-21T08:34:35.622Z,13.50
2023-04-21T08:37:03.503Z,13.10
2023-04-21T08:39:31.319Z,13.45
2023-04-21T08:42:01.526Z,14.13
2023-04-21T08:44:29.394Z,14.43
2023-04-21T08:46:59.582Z,14.48
2023-04-21T08:49:31.539Z,15.00
2023-04-21T08:52:02.212Z,14.10
2023-04-21T08:54:30.879Z,13.60
2023-04-21T08:57:11.815Z,13.07
2023-04-21T08:59:42.825Z,13.75
2023-04-21T09:02:12.477Z,13.40
2023-04-21T09:04:41.337Z,14.45
2023-04-21T09:07:10.911Z,13.20
2023-04-21T09:09:54.536Z,11.60
2023-04-21T09:12:23.161Z,11.80
2023-04-21T09:14:51.261Z,12.45
2023-04-21T09:17:21.718Z,12.35
2023-04-21T09:19:49.560Z,12.63
2023-04-21T09:22:19.032Z,12.27
2023-04-21T09:24:48.085Z,13.00
2023-04-21T09:27:17.494Z,14.18
2023-04-21T09:29:49.222Z,14.50
2023-04-21T09:32:20.780Z,13.80
2023-04-21T09:34:48.798Z,14.07
2023-04-21T09:37:19.147Z,14.75
2023-04-21T09:40:03.640Z,14.83
2023-04-21T09:42:37.076Z,16.13
2023-04-21T09:45:25.452Z,13.88
2023-04-21T09:47:59.363Z,12.20
2023-04-21T09:51:07.087Z,11.05
2023-04-21T09:53:22.002Z,11.10
2023-04-21T09:55:51.815Z,11.80
2023-04-21T09:58:24.559Z,12.02
2023-04-21T10:00:54.568Z,12.65
2023-04-21T10:03:28.029Z,10.88
2023-04-21T10:05:56.790Z,11.55
2023-04-21T10:08:26.154Z,11.00
2023-04-21T10:10:54.394Z,12.52
2023-04-21T10:13:23.418Z,12.27
2023-04-21T10:16:03.650Z,11.70
2023-04-21T10:18:31.719Z,11.50
2023-04-21T10:21:02.680Z,12.27
2023-04-21T10:23:39.271Z,11.45
2023-04-21T10:26:15.040Z,12.52
2023-04-21T10:28:45.018Z,12.68
2023-04-21T10:31:24.066Z,11.52
2023-04-21T10:34:28.642Z,11.60
2023-04-21T10:37:19.511Z,12.75
2023-04-21T10:39:54.537Z,9.80
2023-04-21T10:42:28.152Z,10.60
2023-04-21T10:45:06.510Z,10.60
2023-04-21T10:47:38.789Z,13.55
2023-04-21T10:50:29.622Z,14.50
2023-04-21T10:53:09.351Z,15.10
2023-04-21T10:55:39.872Z,15.18
2023-04-21T10:58:09.138Z,16.00
2023-04-21T11:00:39.156Z,15.13
2023-04-21T11:03:08.750Z,15.88
2023-04-21T11:05:39.328Z,14.65
2023-04-21T11:08:13.981Z,15.93
2023-04-21T11:10:48.948Z,15.57
2023-04-21T11:13:16.704Z,15.40
2023-04-21T11:16:07.072Z,16.52
2023-04-21T11:18:39.605Z,16.42
2023-04-21T11:21:17.854Z,18.25
2023-04-21T11:23:53.575Z,16.65
2023-04-21T11:26:33.260Z,15.48
2023-04-21T11:29:02.930Z,17.65
2023-04-21T11:31:31.541Z,17.73
2023-04-21T11:34:00.160Z,17.02
2023-04-21T11:36:29.231Z,16.55
2023-04-21T11:38:57.032Z,15.33
2023-04-21T11:41:25.900Z,14.98
2023-04-21T11:43:55.008Z,15.23
2023-04-21T11:46:25.522Z,18.63
2023-04-21T11:49:01.131Z,15.40
2023-04-21T11:51:34.009Z,15.18
2023-04-21T11:54:02.531Z,15.32
2023-04-21T11:56:30.420Z,16.03
2023-04-21T11:58:59.547Z,17.70
2023-04-21T12:01:28.166Z,15.57
2023-04-21T12:03:57.100Z,16.90
2023-04-21T12:06:27.016Z,15.95
2023-04-21T12:09:01.586Z,15.02
2023-04-21T12:11:29.544Z,14.48
2023-04-21T12:13:59.604Z,15.35
2023-04-21T12:16:28.389Z,14.75
2023-04-21T12:18:57.515Z,15.65
2023-04-21T12:21:28.564Z,17.27
2023-04-21T12:23:56.607Z,15.13
2023-04-21T12:26:24.727Z,13.70
2023-04-21T12:28:53.005Z,14.80
2023-04-21T12:31:22.142Z,16.85
2023-04-21T12:33:50.016Z,17.40
2023-04-21T12:36:18.282Z,14.67
2023-04-21T12:38:46.077Z,13.55
2023-04-21T12:41:13.929Z,12.43
2023-04-21T12:43:43.116Z,14.57
2023-04-21T12:46:11.115Z,10.80
2023-04-21T12:48:40.334Z,9.98
2023-04-21T12:51:14.887Z,8.70
2023-04-21T12:53:43.072Z,8.20
2023-04-21T12:56:11.192Z,8.90
2023-04-21T12:58:38.997Z,6.63
2023-04-21T13:01:07.157Z,5.00
2023-04-21T13:03:35.333Z,4.80
2023-04-21T13:06:04.811Z,4.57
2023-04-21T13:08:32.573Z,3.60
2023-04-21T13:11:00.393Z,3.33
2023-04-21T13:13:28.219Z,3.97
2023-04-21T13:15:55.983Z,3.90
2023-04-21T13:18:24.038Z,3.10
2023-04-21T13:20:51.900Z,3.58
2023-04-21T13:23:21.020Z,3.23
2023-04-21T13:25:50.700Z,2.70
2023-04-21T13:28:19.158Z,2.88
2023-04-21T13:30:47.055Z,3.45
2023-04-21T13:33:15.002Z,3.53
2023-04-21T13:35:42.902Z,3.75
2023-04-21T13:38:10.756Z,3.47
2023-04-21T13:40:39.968Z,3.28
2023-04-21T13:43:07.866Z,4.43
2023-04-21T13:45:35.710Z,3.72
2023-04-21T13:48:03.616Z,3.30
2023-04-21T13:50:31.576Z,3.25
2023-04-21T13:52:59.359Z,2.70
2023-04-21T13:55:27.218Z,3.07
2023-04-21T13:57:56.497Z,3.63
2023-04-21T14:00:24.607Z,3.33
2023-04-21T14:02:52.730Z,4.38
2023-04-21T14:05:21.040Z,4.20
2023-04-21T14:07:49.125Z,3.85
2023-04-21T14:10:16.991Z,4.03
2023-04-21T14:12:45.518Z,4.60
2023-04-21T14:15:14.993Z,4.50
2023-04-21T14:17:42.994Z,3.93
2023-04-21T14:20:11.910Z,3.30
2023-04-21T14:22:39.702Z,3.50
2023-04-21T14:25:08.001Z,3.90
2023-04-21T14:27:35.921Z,7.43
2023-04-21T14:30:03.787Z,4.40
2023-04-21T14:32:32.970Z,4.73
2023-04-21T14:35:03.690Z,4.20
2023-04-21T14:37:31.539Z,3.10
2023-04-21T14:39:59.390Z,2.70
2023-04-21T14:42:27.233Z,3.20
2023-04-21T14:44:55.122Z,3.50
2023-04-21T14:47:23.220Z,2.63
2023-04-21T14:49:55.617Z,3.13
2023-04-21T14:52:25.723Z,2.50
2023-04-21T14:54:54.040Z,4.50
2023-04-21T14:57:22.706Z,3.05
2023-04-21T14:59:51.326Z,2.97
2023-04-21T15:02:19.965Z,2.80
2023-04-21T15:04:48.252Z,3.30
2023-04-21T15:07:22.824Z,2.40
2023-04-21T15:09:51.538Z,3.25
2023-04-21T15:12:19.410Z,2.63
2023-04-21T15:14:47.354Z,3.10
2023-04-21T15:17:15.211Z,3.40
2023-04-21T15:19:43.091Z,3.72
2023-04-21T15:22:12.030Z,2.90
2023-04-21T15:24:41.316Z,2.87
2023-04-21T15:27:09.133Z,3.53
2023-04-21T15:29:37.228Z,2.50
2023-04-21T15:32:05.264Z,2.80
2023-04-21T15:34:33.094Z,3.17
2023-04-21T15:37:00.915Z,3.17
2023-04-21T15:39:28.729Z,3.53
2023-04-21T15:41:59.006Z,3.30
2023-04-21T15:44:26.975Z,3.78
2023-04-21T15:46:55.072Z,2.83
2023-04-21T15:49:25.720Z,2.60
2023-04-21T15:51:54.021Z,4.13
2023-04-21T15:54:22.612Z,2.50
2023-04-21T15:56:50.707Z,2.83
2023-04-21T15:59:19.890Z,2.55
2023-04-21T16:01:47.803Z,2.78
2023-04-21T16:04:16.423Z,3.22
2023-04-21T16:06:44.421Z,2.38
2023-04-21T16:09:12.274Z,2.60
2023-04-21T16:11:40.456Z,2.53
2023-04-21T16:14:08.493Z,2.53
2023-04-21T16:16:38.722Z,2.40
2023-04-21T16:19:06.778Z,2.72
2023-04-21T16:21:34.742Z,2.70
2023-04-21T16:24:03.368Z,3.45
2023-04-21T16:26:33.218Z,2.70
2023-04-21T16:29:01.042Z,2.90
2023-04-21T16:31:28.894Z,2.30
2023-04-21T16:33:59.693Z,2.45
2023-04-21T16:36:29.515Z,2.43
2023-04-21T16:38:57.287Z,2.20
2023-04-21T16:41:25.328Z,2.60
2023-04-21T16:43:53.577Z,2.92
2023-04-21T16:46:21.879Z,2.60
2023-04-21T16:48:49.775Z,2.35
2023-04-21T16:51:19.157Z,2.63
2023-04-21T16:53:47.426Z,2.30
2023-04-21T16:56:15.439Z,2.30
2023-04-21T16:58:43.257Z,2.73
2023-04-21T17:01:11.512Z,3.75
2023-04-21T17:03:39.463Z,4.20
2023-04-21T17:06:10.753Z,2.85
2023-04-21T17:08:40.336Z,2.72
2023-04-21T17:11:08.109Z,2.53
2023-04-21T17:13:38.814Z,2.58
2023-04-21T17:16:07.876Z,2.20
2023-04-21T17:18:36.609Z,2.60
2023-04-21T17:21:06.062Z,2.30
2023-04-21T17:23:33.901Z,3.10
2023-04-21T17:26:05.008Z,3.10
2023-04-21T17:28:33.473Z,3.20
2023-04-21T17:31:13.620Z,3.97
2023-04-21T17:33:43.444Z,4.85
2023-04-21T17:36:12.212Z,4.45
2023-04-21T17:38:41.774Z,7.73
2023-04-21T17:41:11.385Z,4.28
2023-04-21T17:43:39.196Z,4.47
2023-04-21T17:46:07.587Z,3.78
2023-04-21T17:48:36.190Z,3.22
2023-04-21T17:51:04.476Z,3.72
2023-04-21T17:53:32.484Z,3.70
2023-04-21T17:56:01.060Z,3.03
2023-04-21T17:58:30.338Z,3.40
2023-04-21T18:00:58.151Z,2.72
2023-04-21T18:03:27.311Z,3.27
2023-04-21T18:05:55.425Z,3.10
2023-04-21T18:08:23.494Z,4.18
2023-04-21T18:10:51.396Z,3.13
2023-04-21T18:13:19.238Z,3.35
2023-04-21T18:15:48.447Z,6.28
2023-04-21T18:18:16.300Z,5.07
2023-04-21T18:20:44.339Z,3.87
2023-04-21T18:23:12.463Z,5.25
2023-04-21T18:25:43.063Z,3.75
2023-04-21T18:28:12.503Z,3.40
2023-04-21T18:30:42.163Z,3.50
2023-04-21T18:33:11.941Z,4.45
2023-04-21T18:35:41.035Z,4.68
2023-04-21T18:38:11.475Z,4.40
2023-04-21T18:40:40.445Z,4.00
2023-04-21T18:43:09.607Z,3.72
2023-04-21T18:45:37.699Z,4.60
2023-04-21T18:48:06.178Z,3.77
2023-04-21T18:50:40.433Z,3.78
2023-04-21T18:53:09.522Z,3.58
2023-04-21T18:55:37.570Z,5.70
2023-04-21T18:58:05.421Z,3.83
2023-04-21T19:00:37.028Z,4.95
2023-04-21T19:03:05.939Z,4.38
2023-04-21T19:05:36.611Z,4.15
2023-04-21T19:08:04.420Z,4.88
2023-04-21T19:10:35.325Z,4.07
2023-04-21T19:13:03.191Z,4.70
2023-04-21T19:15:31.076Z,4.18
2023-04-21T19:17:58.930Z,4.03
2023-04-21T19:20:26.905Z,5.82
2023-04-21T19:22:56.080Z,3.55
2023-04-21T19:25:23.882Z,2.47
2023-04-21T19:27:51.708Z,2.28
2023-04-21T19:30:19.920Z,1.50
2023-04-21T19:32:47.827Z,1.77
2023-04-21T19:35:15.784Z,1.30
2023-04-21T19:37:43.743Z,2.03
2023-04-21T19:40:13.977Z,1.90
2023-04-21T19:42:42.040Z,1.15
2023-04-21T19:45:10.947Z,2.67
2023-04-21T19:47:38.853Z,1.20
2023-04-21T19:50:08.150Z,1.70
2023-04-21T19:52:35.951Z,5.22
2023-04-21T19:55:04.527Z,1.92
2023-04-21T19:57:33.697Z,3.15
2023-04-21T20:00:01.613Z,1.90
2023-04-21T20:02:29.642Z,1.05
2023-04-21T20:04:57.748Z,1.20
2023-04-21T20:07:25.683Z,1.20
2023-04-21T20:09:53.486Z,0.95
2023-04-21T20:12:21.308Z,1.30
2023-04-21T20:14:51.792Z,0.90
2023-04-21T20:17:19.797Z,1.58
2023-04-21T20:19:48.176Z,0.93
2023-04-21T20:22:16.337Z,1.20
2023-04-21T20:24:44.197Z,1.85
2023-04-21T20:27:12.042Z,1.63
2023-04-21T20:29:40.170Z,1.15
2023-04-21T20:32:10.335Z,1.20
2023-04-21T20:34:38.200Z,1.60
2023-04-21T20:37:06.170Z,2.10
2023-04-21T20:39:34.206Z,1.30
2023-04-21T20:42:12.689Z,1.60
2023-04-21T20:44:42.518Z,1.50
2023-04-21T20:47:12.880Z,1.57
2023-04-21T20:49:42.483Z,2.55
2023-04-21T20:52:10.798Z,2.00
2023-04-21T20:54:38.740Z,1.80
2023-04-21T20:57:07.491Z,1.85
2023-04-21T20:59:35.675Z,1.47
2023-04-21T21:02:04.098Z,1.75
2023-04-21T21:04:33.417Z,1.90
2023-04-21T21:07:02.598Z,1.30
2023-04-21T21:09:31.736Z,1.20
2023-04-21T21:11:59.669Z,1.52
2023-04-21T21:14:27.791Z,1.52
2023-04-21T21:16:56.299Z,2.00
2023-04-21T21:19:24.196Z,1.40
2023-04-21T21:21:53.353Z,1.40
2023-04-21T21:24:21.123Z,4.30
2023-04-21T21:26:48.934Z,1.98
2023-04-21T21:29:16.746Z,2.17
2023-04-21T21:31:44.589Z,1.92
2023-04-21T21:34:12.437Z,2.05
2023-04-21T21:36:40.221Z,2.92
2023-04-21T21:39:11.311Z,2.97
2023-04-21T21:41:39.697Z,1.75
2023-04-21T21:44:07.646Z,2.90
2023-04-21T21:46:35.597Z,3.65
2023-04-21T21:49:03.689Z,2.20
2023-04-21T21:51:31.457Z,1.80
2023-04-21T21:53:59.212Z,1.65
2023-04-21T21:56:28.488Z,1.67
2023-04-21T21:58:56.343Z,1.80
2023-04-21T22:01:24.421Z,2.30
2023-04-21T22:03:54.223Z,1.92
2023-04-21T22:06:24.280Z,1.98
2023-04-21T22:08:52.561Z,1.80
2023-04-21T22:11:20.662Z,2.40
2023-04-21T22:13:49.835Z,1.63
2023-04-21T22:16:18.413Z,2.63
2023-04-21T22:18:48.128Z,1.75
2023-04-21T22:21:16.152Z,1.80
2023-04-21T22:23:43.970Z,1.95
2023-04-21T22:26:11.769Z,3.05
2023-04-21T22:28:41.555Z,2.90
2023-04-21T22:31:11.457Z,1.85
2023-04-21T22:33:39.305Z,2.38
2023-04-21T22:36:09.830Z,2.40
2023-04-21T22:38:38.306Z,4.97
2023-04-21T22:41:06.418Z,3.00
2023-04-21T22:43:34.237Z,2.50
2023-04-21T22:46:03.111Z,2.20
2023-04-21T22:48:32.679Z,2.72
2023-04-21T22:51:01.361Z,2.60
2023-04-21T22:53:29.294Z,2.60
2023-04-21T22:55:57.295Z,2.13
2023-04-21T22:58:26.109Z,2.38
2023-04-21T23:00:54.121Z,3.53
2023-04-21T23:03:23.083Z,3.05
2023-04-21T23:05:52.505Z,2.78
2023-04-21T23:08:20.389Z,2.60
2023-04-21T23:10:49.175Z,2.63
2023-04-21T23:13:17.009Z,3.25
2023-04-21T23:15:44.900Z,2.67
2023-04-21T23:18:12.814Z,2.88
2023-04-21T23:20:40.695Z,3.22
2023-04-21T23:23:10.021Z,2.70
2023-04-21T23:25:37.905Z,2.60
2023-04-21T23:28:05.748Z,4.47
2023-04-21T23:30:34.111Z,2.95
2023-04-21T23:33:02.180Z,3.30
2023-04-21T23:35:30.199Z,2.97
2023-04-21T23:37:58.369Z,3.40
2023-04-21T23:40:27.706Z,3.40
2023-04-21T23:42:55.512Z,2.97
2023-04-21T23:45:23.810Z,2.30
2023-04-21T23:47:51.819Z,3.75
2023-04-21T23:50:19.766Z,2.75
2023-04-21T23:52:48.944Z,3.00
2023-04-21T23:55:16.738Z,3.13
2023-04-21T23:57:46.817Z,3.00
